createdAt,value
2018-05-21T00:00:09.911Z,16.53
2018-05-21T00:01:09.962Z,16.55
2018-05-21T00:02:09.912Z,16.53
2018-05-21T00:03:09.885Z,16.53
2018-05-21T00:04:09.922Z,16.56
2018-05-21T00:05:09.907Z,16.53
2018-05-21T00:06:09.946Z,16.55
2018-05-21T00:07:09.913Z,16.53
2018-05-21T00:08:09.917Z,16.56
2018-05-21T00:09:09.942Z,16.53
2018-05-21T00:10:09.901Z,16.55
2018-05-21T00:11:10.017Z,16.56
2018-05-21T00:12:09.904Z,16.55
2018-05-21T00:13:09.927Z,16.54
2018-05-21T00:14:09.965Z,16.56
2018-05-21T00:15:09.956Z,16.57
2018-05-21T00:16:09.948Z,16.56
2018-05-21T00:17:09.944Z,16.56
2018-05-21T00:18:09.891Z,16.54
2018-05-21T00:19:09.907Z,16.56
2018-05-21T00:20:09.901Z,16.54
2018-05-21T00:21:10.108Z,16.55
2018-05-21T00:22:09.916Z,16.55
2018-05-21T00:23:09.922Z,16.52
2018-05-21T00:24:09.892Z,16.52
2018-05-21T00:25:09.888Z,16.51
2018-05-21T00:26:09.912Z,16.51
2018-05-21T00:27:09.901Z,16.52
2018-05-21T00:28:09.902Z,16.51
2018-05-21T00:29:09.965Z,16.51
2018-05-21T00:30:09.908Z,16.51
2018-05-21T00:31:09.959Z,16.51
2018-05-21T00:32:09.939Z,16.5
2018-05-21T00:33:09.933Z,16.48
2018-05-21T00:34:09.922Z,16.5
2018-05-21T00:35:09.978Z,16.49
2018-05-21T00:36:09.905Z,16.5
2018-05-21T00:37:09.918Z,16.49
2018-05-21T00:38:09.907Z,16.47
2018-05-21T00:39:09.934Z,16.5
2018-05-21T00:40:09.909Z,16.49
2018-05-21T00:41:09.953Z,16.5
2018-05-21T00:42:09.903Z,16.49
2018-05-21T00:43:09.891Z,16.47
2018-05-21T00:44:10.021Z,16.49
2018-05-21T00:45:10.002Z,16.5
2018-05-21T00:46:09.883Z,16.47
2018-05-21T00:47:09.907Z,16.5
2018-05-21T00:48:09.931Z,16.5
2018-05-21T00:49:09.930Z,16.5
2018-05-21T00:50:09.929Z,16.5
2018-05-21T00:51:09.968Z,16.52
2018-05-21T00:52:09.921Z,16.51
2018-05-21T00:53:10.019Z,16.52
2018-05-21T00:54:09.950Z,16.53
2018-05-21T00:55:09.966Z,16.52
2018-05-21T00:56:10.018Z,16.52
2018-05-21T00:57:09.932Z,16.51
2018-05-21T00:58:10.232Z,16.51
2018-05-21T00:59:10.034Z,16.5
2018-05-21T01:00:09.937Z,16.5
2018-05-21T01:01:10.117Z,16.5
2018-05-21T01:02:09.936Z,16.5
2018-05-21T01:03:09.928Z,16.5
2018-05-21T01:04:09.925Z,16.48
2018-05-21T01:05:09.995Z,16.49
2018-05-21T01:06:09.914Z,16.47
2018-05-21T01:07:10.073Z,16.48
2018-05-21T01:08:09.937Z,16.5
2018-05-21T01:09:10.116Z,16.49
2018-05-21T01:10:09.988Z,16.49
2018-05-21T01:11:10.025Z,16.47
2018-05-21T01:12:09.930Z,16.49
2018-05-21T01:13:09.931Z,16.48
2018-05-21T01:14:09.909Z,16.47
2018-05-21T01:15:10.217Z,16.5
2018-05-21T01:16:09.980Z,16.48
2018-05-21T01:17:09.934Z,16.48
2018-05-21T01:18:09.914Z,16.5
2018-05-21T01:19:10.127Z,16.48
2018-05-21T01:20:10.180Z,16.48
2018-05-21T01:21:09.953Z,16.5
2018-05-21T01:22:09.947Z,16.48
2018-05-21T01:23:09.935Z,16.51
2018-05-21T01:24:10.116Z,16.48
2018-05-21T01:25:09.995Z,16.5
2018-05-21T01:26:10.019Z,16.49
2018-05-21T01:27:09.942Z,16.49
2018-05-21T01:28:09.927Z,16.48
2018-05-21T01:29:09.950Z,16.48
2018-05-21T01:30:09.950Z,16.47
2018-05-21T01:31:09.928Z,16.46
2018-05-21T01:32:09.938Z,16.49
2018-05-21T01:33:10.049Z,16.5
2018-05-21T01:34:09.906Z,16.49
2018-05-21T01:35:09.956Z,16.46
2018-05-21T01:36:09.927Z,16.5
2018-05-21T01:37:09.926Z,16.47
2018-05-21T01:38:09.917Z,16.47
2018-05-21T01:39:09.940Z,16.46
2018-05-21T01:40:09.932Z,16.46
2018-05-21T01:41:09.915Z,16.48
2018-05-21T01:42:09.940Z,16.44
2018-05-21T01:43:09.971Z,16.45
2018-05-21T01:44:09.966Z,16.45
2018-05-21T01:45:09.937Z,16.46
2018-05-21T01:46:09.917Z,16.44
2018-05-21T01:47:09.928Z,16.44
2018-05-21T01:48:09.929Z,16.44
2018-05-21T01:49:09.967Z,16.41
2018-05-21T01:50:09.948Z,16.43
2018-05-21T01:51:09.969Z,16.43
2018-05-21T01:52:09.946Z,16.4
2018-05-21T01:53:09.929Z,16.38
2018-05-21T01:54:09.922Z,16.42
2018-05-21T01:55:09.973Z,16.38
2018-05-21T01:56:10.222Z,16.37
2018-05-21T01:57:10.090Z,16.37
2018-05-21T01:58:10.017Z,16.34
2018-05-21T01:59:09.971Z,16.36
2018-05-21T02:00:10.016Z,16.33
2018-05-21T02:01:09.945Z,16.33
2018-05-21T02:02:10.152Z,16.33
2018-05-21T02:03:09.988Z,16.31
2018-05-21T02:04:09.955Z,16.31
2018-05-21T02:05:10.161Z,16.29
2018-05-21T02:06:09.983Z,16.28
2018-05-21T02:07:10.092Z,16.28
2018-05-21T02:08:10.089Z,16.27
2018-05-21T02:09:09.966Z,16.3
2018-05-21T02:10:09.943Z,16.28
2018-05-21T02:11:10.092Z,16.27
2018-05-21T02:12:09.951Z,16.26
2018-05-21T02:13:09.997Z,16.26
2018-05-21T02:14:10.032Z,16.24
2018-05-21T02:15:10.036Z,16.21
2018-05-21T02:16:10.125Z,16.21
2018-05-21T02:17:09.963Z,16.21
2018-05-21T02:18:10.086Z,16.22
2018-05-21T02:19:10.077Z,16.21
2018-05-21T02:20:10.230Z,16.21
2018-05-21T02:21:10.081Z,16.2
2018-05-21T02:22:10.092Z,16.2
2018-05-21T02:23:10.507Z,16.21
2018-05-21T02:24:09.990Z,16.21
2018-05-21T02:25:09.984Z,16.22
2018-05-21T02:26:09.945Z,16.2
2018-05-21T02:27:10.092Z,16.2
2018-05-21T02:28:10.161Z,16.2
2018-05-21T02:29:10.032Z,16.2
2018-05-21T02:30:10.013Z,16.19
2018-05-21T02:31:09.969Z,16.2
2018-05-21T02:32:10.038Z,16.19
2018-05-21T02:33:10.092Z,16.19
2018-05-21T02:34:09.965Z,16.2
2018-05-21T02:35:10.077Z,16.21
2018-05-21T02:36:10.090Z,16.2
2018-05-21T02:37:10.091Z,16.19
2018-05-21T02:38:10.023Z,16.19
2018-05-21T02:39:10.089Z,16.19
2018-05-21T02:40:10.043Z,16.19
2018-05-21T02:41:10.093Z,16.18
2018-05-21T02:42:09.980Z,16.17
2018-05-21T02:43:10.031Z,16.18
2018-05-21T02:44:10.015Z,16.16
2018-05-21T02:45:10.240Z,16.14
2018-05-21T02:46:10.074Z,16.14
2018-05-21T02:47:09.991Z,16.15
2018-05-21T02:48:09.969Z,16.14
2018-05-21T02:49:09.957Z,16.11
2018-05-21T02:50:10.036Z,16.13
2018-05-21T02:51:09.985Z,16.12
2018-05-21T02:52:09.945Z,16.12
2018-05-21T02:53:10.000Z,16.09
2018-05-21T02:54:10.101Z,16.09
2018-05-21T02:55:09.970Z,16.09
2018-05-21T02:56:09.970Z,16.09
2018-05-21T02:57:10.064Z,16.07
2018-05-21T02:58:09.974Z,16.07
2018-05-21T02:59:09.970Z,16.05
2018-05-21T03:00:09.977Z,16.06
2018-05-21T03:01:09.986Z,16.04
2018-05-21T03:02:09.973Z,16.03
2018-05-21T03:03:09.982Z,16.03
2018-05-21T03:04:09.968Z,16.02
2018-05-21T03:05:09.978Z,16.01
2018-05-21T03:06:10.004Z,16.01
2018-05-21T03:07:10.065Z,16.01
2018-05-21T03:08:10.089Z,16.01
2018-05-21T03:09:10.046Z,15.98
2018-05-21T03:10:09.988Z,16
2018-05-21T03:11:09.981Z,15.97
2018-05-21T03:12:09.995Z,15.96
2018-05-21T03:13:10.171Z,15.99
2018-05-21T03:14:10.144Z,15.97
2018-05-21T03:15:10.018Z,15.96
2018-05-21T03:16:10.112Z,15.96
2018-05-21T03:17:10.050Z,15.95
2018-05-21T03:18:09.996Z,15.95
2018-05-21T03:19:10.090Z,15.94
2018-05-21T03:20:09.970Z,15.94
2018-05-21T03:21:10.059Z,15.94
2018-05-21T03:22:09.996Z,15.91
2018-05-21T03:23:10.004Z,15.91
2018-05-21T03:24:10.136Z,15.91
2018-05-21T03:25:10.018Z,15.9
2018-05-21T03:26:10.026Z,15.93
2018-05-21T03:27:10.076Z,15.89
2018-05-21T03:28:10.032Z,15.9
2018-05-21T03:29:10.114Z,15.9
2018-05-21T03:30:09.985Z,15.89
2018-05-21T03:31:10.127Z,15.9
2018-05-21T03:32:10.130Z,15.88
2018-05-21T03:33:10.038Z,15.89
2018-05-21T03:34:10.101Z,15.87
2018-05-21T03:35:10.220Z,15.88
2018-05-21T03:36:10.191Z,15.9
2018-05-21T03:37:09.992Z,15.89
2018-05-21T03:38:10.146Z,15.9
2018-05-21T03:39:10.106Z,15.88
2018-05-21T03:40:10.089Z,15.88
2018-05-21T03:41:10.047Z,15.88
2018-05-21T03:42:10.028Z,15.86
2018-05-21T03:43:10.159Z,15.89
2018-05-21T03:44:10.063Z,15.86
2018-05-21T03:45:10.125Z,15.85
2018-05-21T03:46:10.058Z,15.87
2018-05-21T03:47:10.035Z,15.85
2018-05-21T03:48:10.032Z,15.85
2018-05-21T03:49:10.127Z,15.85
2018-05-21T03:50:10.022Z,15.85
2018-05-21T03:51:09.999Z,15.85
2018-05-21T03:52:10.002Z,15.84
2018-05-21T03:53:10.076Z,15.84
2018-05-21T03:54:10.112Z,15.84
2018-05-21T03:55:10.086Z,15.84
2018-05-21T03:56:10.075Z,15.83
2018-05-21T03:57:10.015Z,15.84
2018-05-21T03:58:09.994Z,15.84
2018-05-21T03:59:10.016Z,15.84
2018-05-21T04:00:09.993Z,15.83
2018-05-21T04:01:10.000Z,15.82
2018-05-21T04:02:09.964Z,15.83
2018-05-21T04:03:09.998Z,15.83
2018-05-21T04:04:10.049Z,15.83
2018-05-21T04:05:10.016Z,15.84
2018-05-21T04:06:09.989Z,15.84
2018-05-21T04:07:10.188Z,15.84
2018-05-21T04:08:10.010Z,15.83
2018-05-21T04:09:09.985Z,15.84
2018-05-21T04:10:10.011Z,15.84
2018-05-21T04:11:09.998Z,15.84
2018-05-21T04:12:10.014Z,15.83
2018-05-21T04:13:10.087Z,15.84
2018-05-21T04:14:10.010Z,15.84
2018-05-21T04:15:10.127Z,15.84
2018-05-21T04:16:09.995Z,15.85
2018-05-21T04:17:10.012Z,15.83
2018-05-21T04:18:10.078Z,15.83
2018-05-21T04:19:10.034Z,15.84
2018-05-21T04:20:10.054Z,15.83
2018-05-21T04:21:10.142Z,15.85
2018-05-21T04:22:10.004Z,15.84
2018-05-21T04:23:10.137Z,15.85
2018-05-21T04:24:10.170Z,15.86
2018-05-21T04:25:10.105Z,15.84
2018-05-21T04:26:10.062Z,15.84
2018-05-21T04:27:10.206Z,15.85
2018-05-21T04:28:10.116Z,15.85
2018-05-21T04:29:10.029Z,15.85
2018-05-21T04:30:10.077Z,15.85
2018-05-21T04:31:10.091Z,15.85
2018-05-21T04:32:10.106Z,15.86
2018-05-21T04:33:10.088Z,15.86
2018-05-21T04:34:10.124Z,15.87
2018-05-21T04:35:10.092Z,15.86
2018-05-21T04:36:10.073Z,15.86
2018-05-21T04:37:10.114Z,15.89
2018-05-21T04:38:10.222Z,15.86
2018-05-21T04:39:10.129Z,15.88
2018-05-21T04:40:10.148Z,15.88
2018-05-21T04:41:10.073Z,15.86
2018-05-21T04:42:10.046Z,15.89
2018-05-21T04:43:10.220Z,15.88
2018-05-21T04:44:10.163Z,15.89
2018-05-21T04:45:10.155Z,15.9
2018-05-21T04:46:10.124Z,15.9
2018-05-21T04:47:10.178Z,15.9
2018-05-21T04:48:10.059Z,15.9
2018-05-21T04:49:10.018Z,15.9
2018-05-21T04:50:10.196Z,15.9
2018-05-21T04:51:10.102Z,15.9
2018-05-21T04:52:10.096Z,15.92
2018-05-21T04:53:10.148Z,15.9
2018-05-21T04:54:10.025Z,15.89
2018-05-21T04:55:10.102Z,15.9
2018-05-21T04:56:10.097Z,15.92
2018-05-21T04:57:10.151Z,15.92
2018-05-21T04:58:10.069Z,15.91
2018-05-21T04:59:10.155Z,15.92
2018-05-21T05:00:10.201Z,15.92
2018-05-21T05:01:10.048Z,15.92
2018-05-21T05:02:10.084Z,15.95
2018-05-21T05:03:10.110Z,15.94
2018-05-21T05:04:10.049Z,15.93
2018-05-21T05:05:10.145Z,15.95
2018-05-21T05:06:10.081Z,15.95
2018-05-21T05:07:10.278Z,15.95
2018-05-21T05:08:10.023Z,15.96
2018-05-21T05:09:10.103Z,15.96
2018-05-21T05:10:10.038Z,15.97
2018-05-21T05:11:10.045Z,15.98
2018-05-21T05:12:10.030Z,15.99
2018-05-21T05:13:10.033Z,16
2018-05-21T05:14:10.107Z,16
2018-05-21T05:15:10.119Z,16.01
2018-05-21T05:16:10.082Z,16
2018-05-21T05:17:10.049Z,16.03
2018-05-21T05:18:10.038Z,16.03
2018-05-21T05:19:10.021Z,16.04
2018-05-21T05:20:10.029Z,16.04
2018-05-21T05:21:10.782Z,16.04
2018-05-21T05:22:10.084Z,16.07
2018-05-21T05:23:10.064Z,16.08
2018-05-21T05:24:10.101Z,16.08
2018-05-21T05:25:10.046Z,16.09
2018-05-21T05:26:10.052Z,16.09
2018-05-21T05:27:10.108Z,16.1
2018-05-21T05:28:10.111Z,16.12
2018-05-21T05:29:10.037Z,16.11
2018-05-21T05:30:10.127Z,16.14
2018-05-21T05:31:10.189Z,16.12
2018-05-21T05:32:10.039Z,16.14
2018-05-21T05:33:10.056Z,16.14
2018-05-21T05:34:10.082Z,16.15
2018-05-21T05:35:10.101Z,16.15
2018-05-21T05:36:10.094Z,16.16
2018-05-21T05:37:10.056Z,16.16
2018-05-21T05:38:10.039Z,16.19
2018-05-21T05:39:10.142Z,16.19
2018-05-21T05:40:10.125Z,16.21
2018-05-21T05:41:10.149Z,16.22
2018-05-21T05:42:11.364Z,16.22
2018-05-21T05:43:10.776Z,16.23
2018-05-21T05:44:10.219Z,16.23
2018-05-21T05:45:10.117Z,16.25
2018-05-21T05:46:10.116Z,16.26
2018-05-21T05:47:10.107Z,16.27
2018-05-21T05:48:10.073Z,16.28
2018-05-21T05:49:10.075Z,16.29
2018-05-21T05:50:10.072Z,16.29
2018-05-21T05:51:10.103Z,16.32
2018-05-21T05:52:10.133Z,16.34
2018-05-21T05:53:10.177Z,16.35
2018-05-21T05:54:10.084Z,16.37
2018-05-21T05:55:10.095Z,16.38
2018-05-21T05:56:10.175Z,16.4
2018-05-21T05:57:10.149Z,16.4
2018-05-21T05:58:10.133Z,16.41
2018-05-21T05:59:10.208Z,16.44
2018-05-21T06:00:10.159Z,16.45
2018-05-21T06:01:10.090Z,16.47
2018-05-21T06:02:10.112Z,16.49
2018-05-21T06:03:10.128Z,16.52
2018-05-21T06:04:10.108Z,16.53
2018-05-21T06:05:10.089Z,16.53
2018-05-21T06:06:10.096Z,16.58
2018-05-21T06:07:10.320Z,16.58
2018-05-21T06:08:10.102Z,16.61
2018-05-21T06:09:10.141Z,16.6
2018-05-21T06:10:10.116Z,16.6
2018-05-21T06:11:10.060Z,16.63
2018-05-21T06:12:10.064Z,16.65
2018-05-21T06:13:10.119Z,16.68
2018-05-21T06:14:10.069Z,16.68
2018-05-21T06:15:10.093Z,16.7
2018-05-21T06:16:10.076Z,16.72
2018-05-21T06:17:10.114Z,16.72
2018-05-21T06:18:10.079Z,16.74
2018-05-21T06:19:10.107Z,16.77
2018-05-21T06:20:10.115Z,16.77
2018-05-21T06:21:10.136Z,16.77
2018-05-21T06:22:10.109Z,16.79
2018-05-21T06:23:10.105Z,16.82
2018-05-21T06:24:10.115Z,16.82
2018-05-21T06:25:10.093Z,16.81
2018-05-21T06:26:10.107Z,16.84
2018-05-21T06:27:10.103Z,16.83
2018-05-21T06:28:10.172Z,16.86
2018-05-21T06:29:10.143Z,16.87
2018-05-21T06:30:10.105Z,16.88
2018-05-21T06:31:10.138Z,16.89
2018-05-21T06:32:10.084Z,16.91
2018-05-21T06:33:10.096Z,16.9
2018-05-21T06:34:11.794Z,16.95
2018-05-21T06:35:10.169Z,16.96
2018-05-21T06:36:10.090Z,16.99
2018-05-21T06:37:10.105Z,17.01
2018-05-21T06:38:10.127Z,17
2018-05-21T06:39:10.149Z,17.02
2018-05-21T06:40:10.159Z,17.07
2018-05-21T06:41:10.745Z,17.08
2018-05-21T06:42:10.109Z,17.08
2018-05-21T06:43:10.075Z,17.1
2018-05-21T06:44:11.305Z,17.12
2018-05-21T06:45:10.131Z,17.13
2018-05-21T06:46:10.087Z,17.13
2018-05-21T06:47:10.247Z,17.15
2018-05-21T06:48:10.178Z,17.15
2018-05-21T06:49:10.225Z,17.17
2018-05-21T06:50:10.165Z,17.19
2018-05-21T06:51:10.208Z,17.21
2018-05-21T06:52:10.288Z,17.22
2018-05-21T06:53:10.131Z,17.24
2018-05-21T06:54:10.197Z,17.26
2018-05-21T06:55:10.229Z,17.28
2018-05-21T06:56:10.240Z,17.29
2018-05-21T06:57:10.270Z,17.29
2018-05-21T06:58:10.133Z,17.33
2018-05-21T06:59:10.140Z,17.34
2018-05-21T07:00:10.183Z,17.38
2018-05-21T07:01:10.830Z,17.4
2018-05-21T07:02:10.148Z,17.39
2018-05-21T07:03:10.152Z,17.4
2018-05-21T07:04:10.257Z,17.41
2018-05-21T07:05:10.187Z,17.42
2018-05-21T07:06:10.172Z,17.42
2018-05-21T07:07:10.326Z,17.48
2018-05-21T07:08:10.138Z,17.51
2018-05-21T07:09:10.127Z,17.5
2018-05-21T07:10:10.140Z,17.55
2018-05-21T07:11:10.143Z,17.55
2018-05-21T07:12:10.247Z,17.59
2018-05-21T07:13:10.124Z,17.62
2018-05-21T07:14:10.179Z,17.66
2018-05-21T07:15:10.294Z,17.68
2018-05-21T07:16:10.251Z,17.69
2018-05-21T07:17:10.122Z,17.69
2018-05-21T07:18:10.842Z,17.73
2018-05-21T07:19:10.274Z,17.75
2018-05-21T07:20:10.177Z,17.77
2018-05-21T07:21:10.101Z,17.79
2018-05-21T07:22:10.139Z,17.83
2018-05-21T07:23:10.199Z,17.86
2018-05-21T07:24:10.127Z,17.89
2018-05-21T07:25:10.209Z,17.91
2018-05-21T07:26:10.131Z,17.93
2018-05-21T07:27:10.148Z,17.94
2018-05-21T07:28:10.153Z,17.96
2018-05-21T07:29:10.242Z,18.01
2018-05-21T07:30:10.161Z,18.03
2018-05-21T07:31:10.244Z,18.06
2018-05-21T07:32:10.180Z,18.07
2018-05-21T07:33:10.147Z,18.09
2018-05-21T07:34:10.148Z,18.12
2018-05-21T07:35:10.122Z,18.14
2018-05-21T07:36:10.106Z,18.19
2018-05-21T07:37:10.132Z,18.2
2018-05-21T07:38:10.105Z,18.26
2018-05-21T07:39:10.135Z,18.25
2018-05-21T07:40:10.150Z,18.26
2018-05-21T07:41:10.142Z,18.29
2018-05-21T07:42:10.152Z,18.3
2018-05-21T07:43:10.240Z,18.33
2018-05-21T07:44:10.124Z,18.36
2018-05-21T07:45:10.163Z,18.4
2018-05-21T07:46:10.155Z,18.4
2018-05-21T07:47:10.113Z,18.43
2018-05-21T07:48:10.359Z,18.45
2018-05-21T07:49:10.115Z,18.49
2018-05-21T07:50:10.153Z,18.54
2018-05-21T07:51:10.156Z,18.58
2018-05-21T07:52:10.138Z,18.6
2018-05-21T07:53:10.196Z,18.62
2018-05-21T07:54:10.129Z,18.61
2018-05-21T07:55:10.107Z,18.66
2018-05-21T07:56:10.340Z,18.68
2018-05-21T07:57:10.142Z,18.72
2018-05-21T07:58:10.836Z,18.75
2018-05-21T07:59:10.154Z,18.76
2018-05-21T08:00:10.229Z,18.8
2018-05-21T08:01:10.156Z,18.84
2018-05-21T08:02:10.178Z,18.86
2018-05-21T08:03:10.166Z,18.87
2018-05-21T08:04:10.235Z,18.9
2018-05-21T08:05:10.657Z,18.95
2018-05-21T08:06:10.181Z,18.93
2018-05-21T08:07:10.182Z,18.96
2018-05-21T08:08:10.173Z,18.97
2018-05-21T08:09:10.225Z,18.98
2018-05-21T08:10:10.189Z,19.02
2018-05-21T08:11:10.241Z,19.03
2018-05-21T08:12:10.177Z,19.09
2018-05-21T08:13:10.185Z,19.13
2018-05-21T08:14:10.131Z,19.19
2018-05-21T08:15:10.365Z,19.24
2018-05-21T08:16:10.140Z,19.24
2018-05-21T08:17:10.149Z,19.3
2018-05-21T08:18:10.131Z,19.31
2018-05-21T08:19:10.132Z,19.34
2018-05-21T08:20:10.121Z,19.36
2018-05-21T08:21:10.159Z,19.36
2018-05-21T08:22:11.030Z,19.35
2018-05-21T08:23:11.031Z,19.34
2018-05-21T08:24:10.260Z,19.36
2018-05-21T08:25:10.176Z,19.37
2018-05-21T08:26:10.164Z,19.4
2018-05-21T08:27:10.210Z,19.38
2018-05-21T08:28:10.148Z,19.42
2018-05-21T08:29:10.143Z,19.44
2018-05-21T08:30:10.140Z,19.44
2018-05-21T08:31:10.179Z,19.44
2018-05-21T08:32:10.123Z,19.49
2018-05-21T08:33:10.149Z,19.5
2018-05-21T08:34:10.162Z,19.52
2018-05-21T08:35:10.217Z,19.56
2018-05-21T08:36:10.991Z,19.59
2018-05-21T08:37:10.140Z,19.59
2018-05-21T08:38:10.189Z,19.61
2018-05-21T08:39:10.538Z,19.61
2018-05-21T08:40:10.111Z,19.6
2018-05-21T08:41:10.139Z,19.61
2018-05-21T08:42:10.180Z,19.65
2018-05-21T08:43:10.238Z,19.69
2018-05-21T08:44:10.144Z,19.69
2018-05-21T08:45:10.789Z,19.73
2018-05-21T08:46:10.151Z,19.75
2018-05-21T08:47:10.225Z,19.77
2018-05-21T08:48:10.178Z,19.8
2018-05-21T08:49:10.162Z,19.8
2018-05-21T08:50:10.183Z,19.81
2018-05-21T08:51:10.218Z,19.87
2018-05-21T08:52:10.234Z,19.87
2018-05-21T08:53:10.353Z,19.93
2018-05-21T08:54:10.387Z,19.96
2018-05-21T08:55:10.922Z,19.96
2018-05-21T08:56:10.214Z,19.98
2018-05-21T08:57:10.219Z,19.95
2018-05-21T08:58:10.179Z,19.97
2018-05-21T08:59:10.212Z,19.98
2018-05-21T09:00:10.250Z,19.96
2018-05-21T09:01:10.175Z,19.93
2018-05-21T09:02:10.182Z,19.93
2018-05-21T09:03:10.191Z,19.94
2018-05-21T09:04:10.167Z,19.92
2018-05-21T09:05:10.182Z,19.92
2018-05-21T09:06:10.184Z,19.94
2018-05-21T09:07:10.531Z,19.94
2018-05-21T09:08:10.195Z,19.94
2018-05-21T09:09:10.222Z,19.94
2018-05-21T09:10:11.558Z,19.92
2018-05-21T09:11:10.230Z,19.9
2018-05-21T09:12:10.218Z,19.88
2018-05-21T09:13:10.198Z,19.86
2018-05-21T09:14:10.362Z,19.87
2018-05-21T09:15:10.174Z,19.86
2018-05-21T09:16:10.184Z,19.84
2018-05-21T09:17:10.197Z,19.81
2018-05-21T09:18:10.366Z,19.82
2018-05-21T09:19:10.209Z,19.83
2018-05-21T09:20:10.207Z,19.86
2018-05-21T09:21:10.207Z,19.9
2018-05-21T09:22:10.150Z,19.93
2018-05-21T09:23:10.162Z,19.95
2018-05-21T09:24:10.180Z,19.97
2018-05-21T09:25:10.231Z,20.01
2018-05-21T09:26:11.897Z,20.07
2018-05-21T09:27:10.180Z,20.08
2018-05-21T09:28:10.177Z,20.11
2018-05-21T09:29:10.188Z,20.16
2018-05-21T09:30:10.216Z,20.22
2018-05-21T09:31:10.538Z,20.3
2018-05-21T09:32:10.178Z,20.34
2018-05-21T09:33:10.221Z,20.39
2018-05-21T09:34:10.285Z,20.37
2018-05-21T09:35:10.183Z,20.4
2018-05-21T09:36:10.397Z,20.38
2018-05-21T09:37:10.307Z,20.4
2018-05-21T09:38:10.242Z,20.43
2018-05-21T09:39:10.249Z,20.5
2018-05-21T09:40:10.181Z,20.51
2018-05-21T09:41:10.180Z,20.58
2018-05-21T09:42:10.191Z,20.64
2018-05-21T09:43:10.198Z,20.63
2018-05-21T09:44:10.217Z,20.66
2018-05-21T09:45:10.268Z,20.7
2018-05-21T09:46:10.193Z,20.72
2018-05-21T09:47:10.203Z,20.76
2018-05-21T09:48:10.658Z,20.83
2018-05-21T09:49:10.207Z,20.83
2018-05-21T09:50:10.205Z,20.87
2018-05-21T09:51:10.271Z,20.91
2018-05-21T09:52:10.281Z,20.99
2018-05-21T09:53:10.238Z,21.07
2018-05-21T09:54:10.184Z,21.1
2018-05-21T09:55:10.166Z,21.13
2018-05-21T09:56:10.189Z,21.15
2018-05-21T09:57:10.193Z,21.2
2018-05-21T09:58:10.253Z,21.22
2018-05-21T09:59:10.236Z,21.22
2018-05-21T10:00:10.240Z,21.24
2018-05-21T10:01:10.377Z,21.25
2018-05-21T10:02:10.217Z,21.25
2018-05-21T10:03:10.226Z,21.31
2018-05-21T10:04:10.359Z,21.32
2018-05-21T10:05:10.310Z,21.38
2018-05-21T10:06:10.248Z,21.46
2018-05-21T10:07:10.343Z,21.39
2018-05-21T10:08:10.226Z,21.42
2018-05-21T10:09:10.331Z,21.41
2018-05-21T10:10:10.212Z,21.43
2018-05-21T10:11:10.253Z,21.43
2018-05-21T10:12:12.239Z,21.43
2018-05-21T10:13:10.198Z,21.48
2018-05-21T10:14:10.281Z,21.49
2018-05-21T10:15:10.362Z,21.58
2018-05-21T10:16:10.176Z,21.59
2018-05-21T10:17:10.512Z,21.62
2018-05-21T10:18:10.414Z,21.65
2018-05-21T10:19:10.241Z,21.65
2018-05-21T10:20:10.417Z,21.7
2018-05-21T10:21:10.416Z,21.76
2018-05-21T10:22:10.405Z,21.76
2018-05-21T10:23:10.323Z,21.77
2018-05-21T10:24:10.360Z,21.76
2018-05-21T10:25:10.325Z,21.77
2018-05-21T10:26:10.804Z,21.75
2018-05-21T10:27:10.374Z,21.8
2018-05-21T10:28:10.384Z,21.87
2018-05-21T10:29:10.425Z,21.88
2018-05-21T10:30:10.555Z,21.88
2018-05-21T10:31:10.471Z,21.91
2018-05-21T10:32:10.392Z,21.94
2018-05-21T10:33:11.037Z,21.94
2018-05-21T10:34:10.421Z,21.96
2018-05-21T10:35:10.414Z,21.95
2018-05-21T10:36:10.986Z,21.96
2018-05-21T10:37:11.508Z,21.98
2018-05-21T10:38:10.443Z,22.03
2018-05-21T10:39:10.321Z,22.07
2018-05-21T10:40:10.436Z,22.04
2018-05-21T10:41:10.332Z,22.09
2018-05-21T10:42:10.343Z,22.13
2018-05-21T10:43:10.204Z,22.16
2018-05-21T10:44:10.396Z,22.26
2018-05-21T10:45:10.449Z,22.29
2018-05-21T10:46:10.207Z,22.36
2018-05-21T10:47:10.380Z,22.33
2018-05-21T10:48:10.414Z,22.26
2018-05-21T10:49:10.573Z,22.28
2018-05-21T10:50:10.290Z,22.31
2018-05-21T10:51:10.234Z,22.38
2018-05-21T10:52:10.263Z,22.38
2018-05-21T10:53:10.478Z,22.36
2018-05-21T10:54:10.249Z,22.37
2018-05-21T10:55:10.456Z,22.41
2018-05-21T10:56:10.738Z,22.43
2018-05-21T10:57:10.310Z,22.45
2018-05-21T10:58:10.329Z,22.54
2018-05-21T10:59:10.296Z,22.51
2018-05-21T11:00:10.452Z,22.58
2018-05-21T11:01:10.249Z,22.59
2018-05-21T11:02:10.367Z,22.58
2018-05-21T11:03:10.215Z,22.59
2018-05-21T11:04:10.263Z,22.62
2018-05-21T11:05:10.286Z,22.7
2018-05-21T11:06:10.242Z,22.77
2018-05-21T11:07:10.248Z,22.78
2018-05-21T11:08:10.257Z,22.86
2018-05-21T11:09:10.230Z,22.91
2018-05-21T11:10:10.242Z,22.9
2018-05-21T11:11:10.250Z,22.91
2018-05-21T11:12:10.705Z,22.92
2018-05-21T11:13:10.323Z,22.96
2018-05-21T11:14:10.406Z,23
2018-05-21T11:15:10.217Z,23.02
2018-05-21T11:16:10.221Z,23.02
2018-05-21T11:17:10.252Z,23.05
2018-05-21T11:18:10.264Z,23.08
2018-05-21T11:19:10.397Z,23.09
2018-05-21T11:20:10.417Z,23.17
2018-05-21T11:21:10.269Z,23.18
2018-05-21T11:22:10.231Z,23.21
2018-05-21T11:23:10.255Z,23.24
2018-05-21T11:24:10.304Z,23.28
2018-05-21T11:25:10.331Z,23.3
2018-05-21T11:26:10.285Z,23.34
2018-05-21T11:27:10.356Z,23.33
2018-05-21T11:28:10.280Z,23.3
2018-05-21T11:29:10.335Z,23.26
2018-05-21T11:30:10.988Z,23.26
2018-05-21T11:31:10.478Z,23.25
2018-05-21T11:32:10.261Z,23.27
2018-05-21T11:33:10.275Z,23.29
2018-05-21T11:34:10.249Z,23.26
2018-05-21T11:35:10.351Z,23.32
2018-05-21T11:36:10.335Z,23.37
2018-05-21T11:37:10.248Z,23.42
2018-05-21T11:38:10.231Z,23.44
2018-05-21T11:39:10.320Z,23.47
2018-05-21T11:40:10.355Z,23.5
2018-05-21T11:41:10.285Z,23.53
2018-05-21T11:42:10.289Z,23.65
2018-05-21T11:43:10.272Z,23.59
2018-05-21T11:44:10.254Z,23.65
2018-05-21T11:45:10.310Z,23.64
2018-05-21T11:46:10.352Z,23.63
2018-05-21T11:47:10.261Z,23.7
2018-05-21T11:48:10.294Z,23.64
2018-05-21T11:49:10.336Z,23.68
2018-05-21T11:50:10.447Z,23.69
2018-05-21T11:51:10.414Z,23.7
2018-05-21T11:52:10.281Z,23.78
2018-05-21T11:53:10.294Z,23.8
2018-05-21T11:54:10.395Z,23.83
2018-05-21T11:55:10.431Z,23.86
2018-05-21T11:56:10.279Z,23.91
2018-05-21T11:57:10.528Z,23.92
2018-05-21T11:58:10.504Z,23.95
2018-05-21T11:59:10.328Z,23.97
2018-05-21T12:00:10.280Z,23.93
2018-05-21T12:01:10.296Z,23.97
2018-05-21T12:02:10.257Z,23.99
2018-05-21T12:03:10.300Z,24.02
2018-05-21T12:04:11.265Z,24.08
2018-05-21T12:05:10.268Z,24.06
2018-05-21T12:06:10.290Z,24.08
2018-05-21T12:07:10.353Z,24.03
2018-05-21T12:08:10.278Z,24.07
2018-05-21T12:09:10.273Z,24.09
2018-05-21T12:10:10.311Z,24.1
2018-05-21T12:11:15.456Z,24.12
2018-05-21T12:12:10.295Z,24.17
2018-05-21T12:13:10.279Z,24.18
2018-05-21T12:14:10.344Z,24.22
2018-05-21T12:15:10.335Z,24.15
2018-05-21T12:16:10.296Z,24.12
2018-05-21T12:17:10.327Z,24.15
2018-05-21T12:18:10.324Z,24.16
2018-05-21T12:19:10.275Z,24.18
2018-05-21T12:20:10.301Z,24.32
2018-05-21T12:21:10.403Z,24.39
2018-05-21T12:22:10.573Z,24.31
2018-05-21T12:23:10.387Z,24.32
2018-05-21T12:24:10.380Z,24.33
2018-05-21T12:25:10.290Z,24.34
2018-05-21T12:26:10.322Z,24.4
2018-05-21T12:27:10.427Z,24.42
2018-05-21T12:28:10.343Z,24.44
2018-05-21T12:29:10.440Z,24.43
2018-05-21T12:30:10.366Z,24.47
2018-05-21T12:31:10.492Z,24.57
2018-05-21T12:32:10.383Z,24.61
2018-05-21T12:33:10.367Z,24.61
2018-05-21T12:34:10.760Z,24.59
2018-05-21T12:35:10.345Z,24.6
2018-05-21T12:36:10.305Z,24.59
2018-05-21T12:37:10.513Z,24.65
2018-05-21T12:38:10.847Z,24.67
2018-05-21T12:39:10.420Z,24.7
2018-05-21T12:40:10.344Z,24.73
2018-05-21T12:41:10.297Z,24.79
2018-05-21T12:42:10.354Z,24.79
2018-05-21T12:43:10.348Z,24.76
2018-05-21T12:44:10.614Z,24.75
2018-05-21T12:45:10.345Z,24.8
2018-05-21T12:46:10.381Z,24.89
2018-05-21T12:47:10.273Z,24.92
2018-05-21T12:48:10.335Z,24.84
2018-05-21T12:49:10.396Z,24.72
2018-05-21T12:50:10.305Z,24.5
2018-05-21T12:51:10.296Z,24.5
2018-05-21T12:52:10.342Z,24.58
2018-05-21T12:53:10.287Z,24.64
2018-05-21T12:54:10.313Z,24.69
2018-05-21T12:55:10.453Z,24.71
2018-05-21T12:56:10.424Z,24.73